Terminal Aerodrome Forecast
Issued by NWS

Home | Current Version | Previous Version | Text Only | Print | Product List | Glossary On
Versions: 1 2 3 4 5 6 7 8 9 10 11 12 13 14
000
FTUS45 KLKN 291720
TAFELY
TAF
KELY 291720Z 2918/3018 18008KT P6SM FEW110
     FM292100 20008KT P6SM VCTS SCT070CB BKN110
     FM300300 21006KT P6SM BKN120=

USA.gov is the U.S. government's official web portal to all federal, state and local government web resources and services.